sensor_id;sensor_type;location;lat;lon;timestamp;P1;durP1;ratioP1;P2;durP2;ratioP2
62153;SDS011;48140;45.486;9.226;2023-05-13T00:01:52;1.45;;;0.75;;
62153;SDS011;48140;45.486;9.226;2023-05-13T00:04:18;1.48;;;0.70;;
62153;SDS011;48140;45.486;9.226;2023-05-13T00:06:44;1.08;;;0.80;;
62153;SDS011;48140;45.486;9.226;2023-05-13T00:09:09;2.50;;;0.57;;
62153;SDS011;48140;45.486;9.226;2023-05-13T00:11:35;0.60;;;0.55;;
62153;SDS011;48140;45.486;9.226;2023-05-13T00:14:01;1.52;;;0.77;;
62153;SDS011;48140;45.486;9.226;2023-05-13T00:16:27;1.98;;;0.93;;
62153;SDS011;48140;45.486;9.226;2023-05-13T00:18:54;1.20;;;0.88;;
62153;SDS011;48140;45.486;9.226;2023-05-13T00:21:19;2.75;;;0.90;;
62153;SDS011;48140;45.486;9.226;2023-05-13T00:23:45;1.70;;;0.55;;
62153;SDS011;48140;45.486;9.226;2023-05-13T00:26:11;4.07;;;1.02;;
62153;SDS011;48140;45.486;9.226;2023-05-13T00:28:36;1.10;;;0.70;;
62153;SDS011;48140;45.486;9.226;2023-05-13T00:31:02;1.35;;;0.80;;
62153;SDS011;48140;45.486;9.226;2023-05-13T00:33:28;1.13;;;0.95;;
62153;SDS011;48140;45.486;9.226;2023-05-13T00:35:56;1.73;;;1.00;;
62153;SDS011;48140;45.486;9.226;2023-05-13T00:38:23;0.90;;;0.80;;
62153;SDS011;48140;45.486;9.226;2023-05-13T00:40:49;1.35;;;0.90;;
62153;SDS011;48140;45.486;9.226;2023-05-13T00:43:15;1.05;;;0.95;;
62153;SDS011;48140;45.486;9.226;2023-05-13T00:45:41;1.27;;;0.80;;
62153;SDS011;48140;45.486;9.226;2023-05-13T00:48:06;3.35;;;0.90;;
62153;SDS011;48140;45.486;9.226;2023-05-13T00:50:33;1.02;;;0.60;;
62153;SDS011;48140;45.486;9.226;2023-05-13T00:52:58;1.38;;;0.88;;
62153;SDS011;48140;45.486;9.226;2023-05-13T00:55:25;1.50;;;0.90;;
62153;SDS011;48140;45.486;9.226;2023-05-13T00:57:51;0.73;;;0.70;;
62153;SDS011;48140;45.486;9.226;2023-05-13T01:00:17;0.88;;;0.70;;
62153;SDS011;48140;45.486;9.226;2023-05-13T01:02:52;1.23;;;0.90;;
62153;SDS011;48140;45.486;9.226;2023-05-13T01:05:40;1.92;;;0.80;;
62153;SDS011;48140;45.486;9.226;2023-05-13T01:08:23;0.93;;;0.70;;
62153;SDS011;48140;45.486;9.226;2023-05-13T01:13:35;0.73;;;0.70;;
62153;SDS011;48140;45.486;9.226;2023-05-13T01:18:59;1.27;;;0.80;;
62153;SDS011;48140;45.486;9.226;2023-05-13T01:21:29;1.13;;;0.80;;
62153;SDS011;48140;45.486;9.226;2023-05-13T01:24:00;0.90;;;0.80;;
62153;SDS011;48140;45.486;9.226;2023-05-13T01:26:26;1.42;;;1.10;;
62153;SDS011;48140;45.486;9.226;2023-05-13T01:28:52;1.33;;;0.98;;
62153;SDS011;48140;45.486;9.226;2023-05-13T01:31:17;1.65;;;0.98;;
62153;SDS011;48140;45.486;9.226;2023-05-13T01:33:44;1.90;;;1.00;;
62153;SDS011;48140;45.486;9.226;2023-05-13T01:36:12;1.65;;;1.13;;
62153;SDS011;48140;45.486;9.226;2023-05-13T01:38:37;1.85;;;1.00;;
62153;SDS011;48140;45.486;9.226;2023-05-13T01:41:04;1.70;;;0.98;;
62153;SDS011;48140;45.486;9.226;2023-05-13T01:43:30;1.33;;;0.90;;
62153;SDS011;48140;45.486;9.226;2023-05-13T01:45:56;1.90;;;1.00;;
62153;SDS011;48140;45.486;9.226;2023-05-13T01:48:24;3.35;;;1.10;;
62153;SDS011;48140;45.486;9.226;2023-05-13T01:50:51;2.92;;;1.08;;
62153;SDS011;48140;45.486;9.226;2023-05-13T01:53:18;1.35;;;1.00;;
62153;SDS011;48140;45.486;9.226;2023-05-13T01:55:43;1.63;;;0.95;;
62153;SDS011;48140;45.486;9.226;2023-05-13T01:58:09;1.90;;;1.00;;
62153;SDS011;48140;45.486;9.226;2023-05-13T02:00:35;0.70;;;0.65;;
62153;SDS011;48140;45.486;9.226;2023-05-13T02:03:01;1.20;;;1.00;;
62153;SDS011;48140;45.486;9.226;2023-05-13T02:05:27;1.40;;;0.90;;
62153;SDS011;48140;45.486;9.226;2023-05-13T02:07:52;4.05;;;1.20;;
62153;SDS011;48140;45.486;9.226;2023-05-13T02:10:18;1.80;;;0.85;;
62153;SDS011;48140;45.486;9.226;2023-05-13T02:12:44;0.77;;;0.77;;
62153;SDS011;48140;45.486;9.226;2023-05-13T02:15:10;4.35;;;0.95;;
62153;SDS011;48140;45.486;9.226;2023-05-13T02:17:35;0.65;;;0.57;;
62153;SDS011;48140;45.486;9.226;2023-05-13T02:20:01;4.05;;;0.90;;
62153;SDS011;48140;45.486;9.226;2023-05-13T02:22:27;1.83;;;0.80;;
62153;SDS011;48140;45.486;9.226;2023-05-13T02:24:53;1.38;;;1.00;;
62153;SDS011;48140;45.486;9.226;2023-05-13T02:27:19;1.38;;;1.13;;
62153;SDS011;48140;45.486;9.226;2023-05-13T02:29:44;1.15;;;0.93;;
62153;SDS011;48140;45.486;9.226;2023-05-13T02:32:10;1.58;;;1.10;;
62153;SDS011;48140;45.486;9.226;2023-05-13T02:34:36;1.45;;;0.95;;
62153;SDS011;48140;45.486;9.226;2023-05-13T02:37:02;2.90;;;1.17;;
62153;SDS011;48140;45.486;9.226;2023-05-13T02:39:28;1.67;;;1.08;;
62153;SDS011;48140;45.486;9.226;2023-05-13T02:41:54;1.85;;;1.10;;
62153;SDS011;48140;45.486;9.226;2023-05-13T02:44:19;2.03;;;0.90;;
62153;SDS011;48140;45.486;9.226;2023-05-13T02:46:45;2.10;;;1.20;;
62153;SDS011;48140;45.486;9.226;2023-05-13T02:49:11;1.50;;;1.13;;
62153;SDS011;48140;45.486;9.226;2023-05-13T02:51:37;4.22;;;1.40;;
62153;SDS011;48140;45.486;9.226;2023-05-13T02:54:03;1.77;;;1.10;;
62153;SDS011;48140;45.486;9.226;2023-05-13T02:56:30;1.60;;;1.20;;
62153;SDS011;48140;45.486;9.226;2023-05-13T02:58:56;2.22;;;1.40;;
62153;SDS011;48140;45.486;9.226;2023-05-13T03:01:21;1.70;;;1.45;;
62153;SDS011;48140;45.486;9.226;2023-05-13T03:03:47;2.38;;;1.48;;
62153;SDS011;48140;45.486;9.226;2023-05-13T03:06:12;4.25;;;1.63;;
62153;SDS011;48140;45.486;9.226;2023-05-13T03:08:38;3.50;;;1.20;;
62153;SDS011;48140;45.486;9.226;2023-05-13T03:11:04;2.45;;;1.50;;
62153;SDS011;48140;45.486;9.226;2023-05-13T03:13:30;3.75;;;1.52;;
62153;SDS011;48140;45.486;9.226;2023-05-13T03:15:55;2.30;;;1.45;;
62153;SDS011;48140;45.486;9.226;2023-05-13T03:18:21;1.60;;;1.20;;
62153;SDS011;48140;45.486;9.226;2023-05-13T03:20:46;2.72;;;1.67;;
62153;SDS011;48140;45.486;9.226;2023-05-13T03:23:12;2.17;;;1.40;;
62153;SDS011;48140;45.486;9.226;2023-05-13T03:25:38;2.17;;;1.40;;
62153;SDS011;48140;45.486;9.226;2023-05-13T03:28:04;3.53;;;1.90;;
62153;SDS011;48140;45.486;9.226;2023-05-13T03:30:30;2.10;;;1.40;;
62153;SDS011;48140;45.486;9.226;2023-05-13T03:32:59;2.08;;;1.48;;
62153;SDS011;48140;45.486;9.226;2023-05-13T03:35:24;1.88;;;1.25;;
62153;SDS011;48140;45.486;9.226;2023-05-13T03:37:50;2.28;;;1.58;;
62153;SDS011;48140;45.486;9.226;2023-05-13T03:40:17;3.45;;;1.50;;
62153;SDS011;48140;45.486;9.226;2023-05-13T03:42:43;3.58;;;1.60;;
62153;SDS011;48140;45.486;9.226;2023-05-13T03:45:10;4.50;;;1.90;;
62153;SDS011;48140;45.486;9.226;2023-05-13T03:47:36;2.80;;;1.45;;
62153;SDS011;48140;45.486;9.226;2023-05-13T03:50:04;2.92;;;1.58;;
62153;SDS011;48140;45.486;9.226;2023-05-13T03:52:30;2.15;;;1.60;;
62153;SDS011;48140;45.486;9.226;2023-05-13T03:54:56;3.08;;;1.50;;
62153;SDS011;48140;45.486;9.226;2023-05-13T03:57:21;2.58;;;1.50;;
62153;SDS011;48140;45.486;9.226;2023-05-13T03:59:47;2.80;;;1.80;;
62153;SDS011;48140;45.486;9.226;2023-05-13T04:02:13;2.65;;;1.83;;
62153;SDS011;48140;45.486;9.226;2023-05-13T04:04:38;2.60;;;1.50;;
62153;SDS011;48140;45.486;9.226;2023-05-13T04:07:04;3.45;;;2.00;;
62153;SDS011;48140;45.486;9.226;2023-05-13T04:09:31;4.50;;;1.73;;
62153;SDS011;48140;45.486;9.226;2023-05-13T04:11:57;1.88;;;1.50;;
62153;SDS011;48140;45.486;9.226;2023-05-13T04:14:22;2.30;;;1.58;;
62153;SDS011;48140;45.486;9.226;2023-05-13T04:16:48;2.58;;;1.45;;
62153;SDS011;48140;45.486;9.226;2023-05-13T04:19:14;3.47;;;1.85;;
62153;SDS011;48140;45.486;9.226;2023-05-13T04:21:39;3.83;;;1.90;;
62153;SDS011;48140;45.486;9.226;2023-05-13T04:24:05;3.03;;;1.67;;
62153;SDS011;48140;45.486;9.226;2023-05-13T04:26:31;4.25;;;1.60;;
62153;SDS011;48140;45.486;9.226;2023-05-13T04:28:56;2.72;;;1.83;;
62153;SDS011;48140;45.486;9.226;2023-05-13T04:31:22;3.75;;;1.88;;
62153;SDS011;48140;45.486;9.226;2023-05-13T04:33:48;2.95;;;1.90;;
62153;SDS011;48140;45.486;9.226;2023-05-13T04:36:13;2.83;;;1.92;;
62153;SDS011;48140;45.486;9.226;2023-05-13T04:38:39;3.42;;;1.70;;
62153;SDS011;48140;45.486;9.226;2023-05-13T04:41:05;3.58;;;1.70;;
62153;SDS011;48140;45.486;9.226;2023-05-13T04:43:31;3.33;;;1.80;;
62153;SDS011;48140;45.486;9.226;2023-05-13T04:45:56;3.10;;;2.00;;
62153;SDS011;48140;45.486;9.226;2023-05-13T04:48:22;4.55;;;1.73;;
62153;SDS011;48140;45.486;9.226;2023-05-13T04:50:49;2.83;;;1.83;;
62153;SDS011;48140;45.486;9.226;2023-05-13T04:53:15;2.95;;;1.85;;
62153;SDS011;48140;45.486;9.226;2023-05-13T04:55:42;6.32;;;2.00;;
62153;SDS011;48140;45.486;9.226;2023-05-13T04:58:07;5.93;;;1.95;;
62153;SDS011;48140;45.486;9.226;2023-05-13T05:00:33;3.70;;;2.00;;
62153;SDS011;48140;45.486;9.226;2023-05-13T05:02:59;4.35;;;1.95;;
62153;SDS011;48140;45.486;9.226;2023-05-13T05:05:24;3.17;;;1.80;;
62153;SDS011;48140;45.486;9.226;2023-05-13T05:07:53;4.45;;;2.03;;
62153;SDS011;48140;45.486;9.226;2023-05-13T05:10:19;4.30;;;2.03;;
62153;SDS011;48140;45.486;9.226;2023-05-13T05:12:44;3.70;;;2.10;;
62153;SDS011;48140;45.486;9.226;2023-05-13T05:15:10;4.35;;;2.30;;
62153;SDS011;48140;45.486;9.226;2023-05-13T05:17:42;3.28;;;2.30;;
62153;SDS011;48140;45.486;9.226;2023-05-13T05:20:10;3.42;;;2.40;;
62153;SDS011;48140;45.486;9.226;2023-05-13T05:22:37;3.65;;;2.45;;
62153;SDS011;48140;45.486;9.226;2023-05-13T05:25:05;4.57;;;2.70;;
62153;SDS011;48140;45.486;9.226;2023-05-13T05:27:32;3.60;;;2.20;;
62153;SDS011;48140;45.486;9.226;2023-05-13T05:29:58;5.75;;;2.90;;
62153;SDS011;48140;45.486;9.226;2023-05-13T05:32:24;4.40;;;2.60;;
62153;SDS011;48140;45.486;9.226;2023-05-13T05:34:49;6.32;;;3.03;;
62153;SDS011;48140;45.486;9.226;2023-05-13T05:37:21;5.00;;;2.80;;
62153;SDS011;48140;45.486;9.226;2023-05-13T05:40:22;4.32;;;2.70;;
62153;SDS011;48140;45.486;9.226;2023-05-13T05:46:46;5.38;;;3.22;;
62153;SDS011;48140;45.486;9.226;2023-05-13T05:50:04;5.43;;;3.33;;
62153;SDS011;48140;45.486;9.226;2023-05-13T05:52:16;5.47;;;3.10;;
62153;SDS011;48140;45.486;9.226;2023-05-13T05:55:12;5.00;;;2.85;;
62153;SDS011;48140;45.486;9.226;2023-05-13T05:58:08;6.18;;;3.60;;
62153;SDS011;48140;45.486;9.226;2023-05-13T06:01:11;5.18;;;3.30;;
62153;SDS011;48140;45.486;9.226;2023-05-13T06:06:46;4.90;;;3.35;;
62153;SDS011;48140;45.486;9.226;2023-05-13T06:13:12;8.50;;;3.90;;
62153;SDS011;48140;45.486;9.226;2023-05-13T06:16:25;6.55;;;4.40;;
62153;SDS011;48140;45.486;9.226;2023-05-13T06:18:54;7.15;;;4.20;;
62153;SDS011;48140;45.486;9.226;2023-05-13T06:21:20;6.05;;;4.05;;
62153;SDS011;48140;45.486;9.226;2023-05-13T06:30:56;7.13;;;3.90;;
62153;SDS011;48140;45.486;9.226;2023-05-13T06:36:43;7.43;;;4.30;;
62153;SDS011;48140;45.486;9.226;2023-05-13T06:39:10;7.15;;;4.18;;
62153;SDS011;48140;45.486;9.226;2023-05-13T06:41:37;7.65;;;4.00;;
62153;SDS011;48140;45.486;9.226;2023-05-13T06:44:09;8.50;;;5.00;;
62153;SDS011;48140;45.486;9.226;2023-05-13T06:46:35;8.70;;;4.70;;
62153;SDS011;48140;45.486;9.226;2023-05-13T06:49:01;6.97;;;4.88;;
62153;SDS011;48140;45.486;9.226;2023-05-13T06:51:36;8.82;;;5.13;;
62153;SDS011;48140;45.486;9.226;2023-05-13T06:54:01;7.45;;;4.97;;
62153;SDS011;48140;45.486;9.226;2023-05-13T06:56:28;11.02;;;5.30;;
62153;SDS011;48140;45.486;9.226;2023-05-13T07:06:26;7.97;;;4.93;;
62153;SDS011;48140;45.486;9.226;2023-05-13T07:09:34;8.38;;;5.15;;
62153;SDS011;48140;45.486;9.226;2023-05-13T07:15:26;10.45;;;5.15;;
62153;SDS011;48140;45.486;9.226;2023-05-13T07:21:44;8.55;;;4.85;;
62153;SDS011;48140;45.486;9.226;2023-05-13T07:24:10;9.00;;;5.10;;
62153;SDS011;48140;45.486;9.226;2023-05-13T07:26:36;8.38;;;5.07;;
62153;SDS011;48140;45.486;9.226;2023-05-13T07:29:29;7.77;;;4.87;;
62153;SDS011;48140;45.486;9.226;2023-05-13T07:31:56;8.90;;;4.75;;
62153;SDS011;48140;45.486;9.226;2023-05-13T07:34:22;7.43;;;4.85;;
62153;SDS011;48140;45.486;9.226;2023-05-13T07:36:56;6.85;;;4.80;;
62153;SDS011;48140;45.486;9.226;2023-05-13T07:39:28;9.43;;;4.85;;
62153;SDS011;48140;45.486;9.226;2023-05-13T07:41:54;6.72;;;3.95;;
62153;SDS011;48140;45.486;9.226;2023-05-13T07:44:19;6.10;;;3.90;;
62153;SDS011;48140;45.486;9.226;2023-05-13T07:46:46;9.57;;;4.47;;
62153;SDS011;48140;45.486;9.226;2023-05-13T07:49:12;10.38;;;4.20;;
62153;SDS011;48140;45.486;9.226;2023-05-13T07:51:38;8.35;;;4.05;;
62153;SDS011;48140;45.486;9.226;2023-05-13T07:54:04;8.48;;;3.90;;
62153;SDS011;48140;45.486;9.226;2023-05-13T07:56:30;6.88;;;3.85;;
62153;SDS011;48140;45.486;9.226;2023-05-13T07:58:56;10.50;;;3.90;;
62153;SDS011;48140;45.486;9.226;2023-05-13T08:01:23;9.13;;;4.50;;
62153;SDS011;48140;45.486;9.226;2023-05-13T08:03:58;7.25;;;4.18;;
62153;SDS011;48140;45.486;9.226;2023-05-13T08:06:26;7.85;;;4.93;;
62153;SDS011;48140;45.486;9.226;2023-05-13T08:09:01;9.05;;;4.22;;
62153;SDS011;48140;45.486;9.226;2023-05-13T08:11:27;6.93;;;4.07;;
62153;SDS011;48140;45.486;9.226;2023-05-13T08:13:55;6.55;;;4.15;;
62153;SDS011;48140;45.486;9.226;2023-05-13T08:16:21;8.38;;;4.03;;
62153;SDS011;48140;45.486;9.226;2023-05-13T08:18:58;6.13;;;3.80;;
62153;SDS011;48140;45.486;9.226;2023-05-13T08:21:26;7.90;;;4.38;;
62153;SDS011;48140;45.486;9.226;2023-05-13T08:24:25;8.68;;;3.53;;
62153;SDS011;48140;45.486;9.226;2023-05-13T08:26:52;6.18;;;4.03;;
62153;SDS011;48140;45.486;9.226;2023-05-13T08:29:45;6.57;;;3.50;;
62153;SDS011;48140;45.486;9.226;2023-05-13T08:32:11;6.97;;;3.83;;
62153;SDS011;48140;45.486;9.226;2023-05-13T08:34:37;6.05;;;3.03;;
62153;SDS011;48140;45.486;9.226;2023-05-13T08:40:25;4.93;;;2.53;;
62153;SDS011;48140;45.486;9.226;2023-05-13T08:42:53;5.63;;;3.00;;
62153;SDS011;48140;45.486;9.226;2023-05-13T08:45:55;5.00;;;3.00;;
62153;SDS011;48140;45.486;9.226;2023-05-13T08:51:49;5.90;;;2.97;;
62153;SDS011;48140;45.486;9.226;2023-05-13T09:01:59;4.57;;;3.30;;
62153;SDS011;48140;45.486;9.226;2023-05-13T09:04:35;5.03;;;3.25;;
62153;SDS011;48140;45.486;9.226;2023-05-13T09:07:57;8.57;;;4.03;;
62153;SDS011;48140;45.486;9.226;2023-05-13T09:19:55;6.10;;;3.30;;
62153;SDS011;48140;45.486;9.226;2023-05-13T09:22:48;5.70;;;3.20;;
62153;SDS011;48140;45.486;9.226;2023-05-13T09:25:52;6.97;;;3.40;;
62153;SDS011;48140;45.486;9.226;2023-05-13T10:05:56;5.47;;;3.28;;
62153;SDS011;48140;45.486;9.226;2023-05-13T10:09:36;5.03;;;3.20;;
62153;SDS011;48140;45.486;9.226;2023-05-13T10:12:06;5.05;;;3.17;;
62153;SDS011;48140;45.486;9.226;2023-05-13T10:14:33;5.38;;;2.83;;
62153;SDS011;48140;45.486;9.226;2023-05-13T10:44:59;4.50;;;2.20;;
62153;SDS011;48140;45.486;9.226;2023-05-13T10:47:25;4.63;;;2.40;;
62153;SDS011;48140;45.486;9.226;2023-05-13T10:49:51;4.18;;;2.63;;
62153;SDS011;48140;45.486;9.226;2023-05-13T10:52:17;5.40;;;2.55;;
62153;SDS011;48140;45.486;9.226;2023-05-13T10:54:45;5.68;;;3.25;;
62153;SDS011;48140;45.486;9.226;2023-05-13T10:57:35;5.50;;;3.05;;
62153;SDS011;48140;45.486;9.226;2023-05-13T11:00:11;5.13;;;2.60;;
62153;SDS011;48140;45.486;9.226;2023-05-13T11:02:41;4.20;;;2.50;;
62153;SDS011;48140;45.486;9.226;2023-05-13T11:05:06;4.35;;;2.83;;
62153;SDS011;48140;45.486;9.226;2023-05-13T11:10:29;3.97;;;2.35;;
62153;SDS011;48140;45.486;9.226;2023-05-13T11:13:05;4.40;;;2.47;;
62153;SDS011;48140;45.486;9.226;2023-05-13T11:15:50;3.60;;;2.50;;
62153;SDS011;48140;45.486;9.226;2023-05-13T11:18:17;5.25;;;2.90;;
62153;SDS011;48140;45.486;9.226;2023-05-13T11:20:51;8.18;;;2.58;;
62153;SDS011;48140;45.486;9.226;2023-05-13T11:23:20;6.13;;;2.50;;
62153;SDS011;48140;45.486;9.226;2023-05-13T11:25:46;4.18;;;2.33;;
62153;SDS011;48140;45.486;9.226;2023-05-13T11:31:19;2.30;;;1.80;;
62153;SDS011;48140;45.486;9.226;2023-05-13T11:34:05;2.30;;;1.77;;
62153;SDS011;48140;45.486;9.226;2023-05-13T11:36:34;2.38;;;1.58;;
62153;SDS011;48140;45.486;9.226;2023-05-13T11:39:11;3.25;;;1.60;;
62153;SDS011;48140;45.486;9.226;2023-05-13T11:41:45;2.55;;;1.70;;
62153;SDS011;48140;45.486;9.226;2023-05-13T11:44:13;4.25;;;2.47;;
62153;SDS011;48140;45.486;9.226;2023-05-13T11:46:56;4.28;;;2.47;;
62153;SDS011;48140;45.486;9.226;2023-05-13T11:52:11;4.10;;;2.40;;
62153;SDS011;48140;45.486;9.226;2023-05-13T11:54:39;4.03;;;2.20;;
62153;SDS011;48140;45.486;9.226;2023-05-13T12:00:03;4.45;;;1.98;;
62153;SDS011;48140;45.486;9.226;2023-05-13T12:02:31;4.32;;;2.40;;
62153;SDS011;48140;45.486;9.226;2023-05-13T12:05:03;7.88;;;2.92;;
62153;SDS011;48140;45.486;9.226;2023-05-13T12:07:30;4.93;;;2.58;;
62153;SDS011;48140;45.486;9.226;2023-05-13T12:09:57;5.15;;;2.60;;
62153;SDS011;48140;45.486;9.226;2023-05-13T12:12:24;6.75;;;2.50;;
62153;SDS011;48140;45.486;9.226;2023-05-13T12:14:50;4.50;;;2.55;;
62153;SDS011;48140;45.486;9.226;2023-05-13T12:17:20;5.63;;;2.65;;
62153;SDS011;48140;45.486;9.226;2023-05-13T12:28:06;5.35;;;2.60;;
62153;SDS011;48140;45.486;9.226;2023-05-13T12:30:37;3.83;;;2.30;;
62153;SDS011;48140;45.486;9.226;2023-05-13T12:33:05;3.45;;;2.10;;
62153;SDS011;48140;45.486;9.226;2023-05-13T12:35:36;4.65;;;2.05;;
62153;SDS011;48140;45.486;9.226;2023-05-13T12:38:05;5.40;;;2.33;;
62153;SDS011;48140;45.486;9.226;2023-05-13T12:40:31;3.38;;;2.20;;
62153;SDS011;48140;45.486;9.226;2023-05-13T12:42:58;4.05;;;2.60;;
62153;SDS011;48140;45.486;9.226;2023-05-13T12:45:29;4.63;;;2.58;;
62153;SDS011;48140;45.486;9.226;2023-05-13T12:47:56;2.85;;;2.00;;
62153;SDS011;48140;45.486;9.226;2023-05-13T12:50:23;3.80;;;1.95;;
62153;SDS011;48140;45.486;9.226;2023-05-13T12:56:46;2.60;;;1.73;;
62153;SDS011;48140;45.486;9.226;2023-05-13T13:00:01;3.03;;;1.90;;
62153;SDS011;48140;45.486;9.226;2023-05-13T13:03:01;3.85;;;1.77;;
62153;SDS011;48140;45.486;9.226;2023-05-13T13:05:31;2.53;;;1.80;;
62153;SDS011;48140;45.486;9.226;2023-05-13T13:07:58;4.03;;;1.90;;
62153;SDS011;48140;45.486;9.226;2023-05-13T13:10:49;2.58;;;1.55;;
62153;SDS011;48140;45.486;9.226;2023-05-13T13:16:14;3.75;;;1.83;;
62153;SDS011;48140;45.486;9.226;2023-05-13T13:18:43;3.13;;;1.60;;
62153;SDS011;48140;45.486;9.226;2023-05-13T15:04:35;3.92;;;1.90;;
62153;SDS011;48140;45.486;9.226;2023-05-13T15:10:24;2.83;;;1.80;;
62153;SDS011;48140;45.486;9.226;2023-05-13T15:12:59;2.58;;;1.88;;
62153;SDS011;48140;45.486;9.226;2023-05-13T15:16:07;5.20;;;2.20;;
62153;SDS011;48140;45.486;9.226;2023-05-13T15:18:35;3.10;;;1.70;;
62153;SDS011;48140;45.486;9.226;2023-05-13T15:21:28;4.15;;;1.70;;
62153;SDS011;48140;45.486;9.226;2023-05-13T15:24:17;3.40;;;1.65;;
62153;SDS011;48140;45.486;9.226;2023-05-13T15:26:51;2.60;;;1.40;;
62153;SDS011;48140;45.486;9.226;2023-05-13T15:33:03;2.50;;;1.40;;
62153;SDS011;48140;45.486;9.226;2023-05-13T15:35:54;3.67;;;1.63;;
62153;SDS011;48140;45.486;9.226;2023-05-13T15:38:35;1.92;;;1.17;;
62153;SDS011;48140;45.486;9.226;2023-05-13T15:41:13;4.65;;;1.85;;
62153;SDS011;48140;45.486;9.226;2023-05-13T15:43:39;2.70;;;1.40;;
62153;SDS011;48140;45.486;9.226;2023-05-13T15:48:57;2.13;;;1.48;;
62153;SDS011;48140;45.486;9.226;2023-05-13T15:51:27;3.47;;;1.95;;
62153;SDS011;48140;45.486;9.226;2023-05-13T15:54:28;3.17;;;1.90;;
62153;SDS011;48140;45.486;9.226;2023-05-13T16:00:56;3.20;;;2.13;;
62153;SDS011;48140;45.486;9.226;2023-05-13T16:03:23;3.85;;;2.15;;
62153;SDS011;48140;45.486;9.226;2023-05-13T16:05:48;4.65;;;2.20;;
62153;SDS011;48140;45.486;9.226;2023-05-13T16:08:29;3.90;;;2.10;;
62153;SDS011;48140;45.486;9.226;2023-05-13T16:11:13;3.35;;;1.77;;
62153;SDS011;48140;45.486;9.226;2023-05-13T16:13:48;3.03;;;2.00;;
62153;SDS011;48140;45.486;9.226;2023-05-13T16:16:17;2.33;;;1.40;;
62153;SDS011;48140;45.486;9.226;2023-05-13T16:21:55;3.53;;;1.58;;
62153;SDS011;48140;45.486;9.226;2023-05-13T16:24:27;3.40;;;1.85;;
62153;SDS011;48140;45.486;9.226;2023-05-13T16:29:54;4.90;;;1.80;;
62153;SDS011;48140;45.486;9.226;2023-05-13T16:32:23;6.18;;;1.90;;
62153;SDS011;48140;45.486;9.226;2023-05-13T16:34:58;1.95;;;1.40;;
62153;SDS011;48140;45.486;9.226;2023-05-13T16:37:28;6.65;;;3.15;;
62153;SDS011;48140;45.486;9.226;2023-05-13T16:39:55;4.00;;;2.10;;
62153;SDS011;48140;45.486;9.226;2023-05-13T16:42:22;3.00;;;1.80;;
62153;SDS011;48140;45.486;9.226;2023-05-13T16:44:48;2.85;;;1.70;;
62153;SDS011;48140;45.486;9.226;2023-05-13T16:47:15;3.30;;;1.80;;
62153;SDS011;48140;45.486;9.226;2023-05-13T16:49:55;5.03;;;1.60;;
62153;SDS011;48140;45.486;9.226;2023-05-13T16:52:22;3.38;;;1.40;;
62153;SDS011;48140;45.486;9.226;2023-05-13T16:54:51;2.28;;;1.60;;
62153;SDS011;48140;45.486;9.226;2023-05-13T16:57:19;2.25;;;1.35;;
62153;SDS011;48140;45.486;9.226;2023-05-13T16:59:47;4.20;;;1.90;;
62153;SDS011;48140;45.486;9.226;2023-05-13T17:02:33;2.70;;;1.48;;
62153;SDS011;48140;45.486;9.226;2023-05-13T17:05:02;4.30;;;1.88;;
62153;SDS011;48140;45.486;9.226;2023-05-13T17:07:28;4.35;;;1.67;;
62153;SDS011;48140;45.486;9.226;2023-05-13T17:09:57;3.42;;;1.52;;
62153;SDS011;48140;45.486;9.226;2023-05-13T17:13:16;1.98;;;1.45;;
62153;SDS011;48140;45.486;9.226;2023-05-13T17:15:46;4.22;;;1.55;;
62153;SDS011;48140;45.486;9.226;2023-05-13T17:18:23;1.45;;;1.15;;
62153;SDS011;48140;45.486;9.226;2023-05-13T17:20:58;2.67;;;1.60;;
62153;SDS011;48140;45.486;9.226;2023-05-13T17:23:27;3.05;;;1.50;;
62153;SDS011;48140;45.486;9.226;2023-05-13T17:26:09;2.90;;;1.60;;
62153;SDS011;48140;45.486;9.226;2023-05-13T17:28:38;2.45;;;1.40;;
62153;SDS011;48140;45.486;9.226;2023-05-13T17:31:06;2.55;;;1.30;;
62153;SDS011;48140;45.486;9.226;2023-05-13T17:33:32;1.10;;;1.00;;
62153;SDS011;48140;45.486;9.226;2023-05-13T17:36:05;1.63;;;1.15;;
62153;SDS011;48140;45.486;9.226;2023-05-13T17:39:21;3.55;;;1.55;;
62153;SDS011;48140;45.486;9.226;2023-05-13T17:41:47;2.65;;;1.52;;
62153;SDS011;48140;45.486;9.226;2023-05-13T17:44:15;3.53;;;1.40;;
62153;SDS011;48140;45.486;9.226;2023-05-13T17:46:44;1.92;;;1.50;;
62153;SDS011;48140;45.486;9.226;2023-05-13T17:49:53;2.28;;;1.50;;
62153;SDS011;48140;45.486;9.226;2023-05-13T17:52:18;2.72;;;1.80;;
62153;SDS011;48140;45.486;9.226;2023-05-13T17:58:15;3.42;;;2.05;;
62153;SDS011;48140;45.486;9.226;2023-05-13T18:03:48;3.90;;;1.92;;
62153;SDS011;48140;45.486;9.226;2023-05-13T18:07:22;7.55;;;2.17;;
62153;SDS011;48140;45.486;9.226;2023-05-13T18:17:16;2.63;;;1.67;;
62153;SDS011;48140;45.486;9.226;2023-05-13T18:20:21;3.00;;;1.90;;
62153;SDS011;48140;45.486;9.226;2023-05-13T18:33:57;2.80;;;1.70;;
62153;SDS011;48140;45.486;9.226;2023-05-13T18:36:37;3.80;;;1.77;;
62153;SDS011;48140;45.486;9.226;2023-05-13T18:39:35;4.53;;;1.85;;
62153;SDS011;48140;45.486;9.226;2023-05-13T18:42:04;4.55;;;2.60;;
62153;SDS011;48140;45.486;9.226;2023-05-13T18:44:30;3.97;;;2.00;;
62153;SDS011;48140;45.486;9.226;2023-05-13T18:46:56;3.42;;;1.67;;
62153;SDS011;48140;45.486;9.226;2023-05-13T18:49:23;2.58;;;1.80;;
62153;SDS011;48140;45.486;9.226;2023-05-13T18:52:14;3.80;;;1.50;;
62153;SDS011;48140;45.486;9.226;2023-05-13T18:54:50;2.90;;;1.60;;
62153;SDS011;48140;45.486;9.226;2023-05-13T18:57:22;3.30;;;1.85;;
62153;SDS011;48140;45.486;9.226;2023-05-13T18:59:50;5.63;;;1.92;;
62153;SDS011;48140;45.486;9.226;2023-05-13T19:02:16;2.50;;;1.33;;
62153;SDS011;48140;45.486;9.226;2023-05-13T19:04:42;2.25;;;1.40;;
62153;SDS011;48140;45.486;9.226;2023-05-13T19:07:08;1.60;;;1.10;;
62153;SDS011;48140;45.486;9.226;2023-05-13T19:09:33;2.22;;;1.40;;
62153;SDS011;48140;45.486;9.226;2023-05-13T19:12:00;5.88;;;1.40;;
62153;SDS011;48140;45.486;9.226;2023-05-13T19:14:25;2.00;;;1.33;;
62153;SDS011;48140;45.486;9.226;2023-05-13T19:17:12;2.90;;;1.55;;
62153;SDS011;48140;45.486;9.226;2023-05-13T19:19:40;1.90;;;1.10;;
62153;SDS011;48140;45.486;9.226;2023-05-13T19:22:07;2.60;;;1.30;;
62153;SDS011;48140;45.486;9.226;2023-05-13T19:24:33;1.95;;;1.15;;
62153;SDS011;48140;45.486;9.226;2023-05-13T19:27:00;1.10;;;1.00;;
62153;SDS011;48140;45.486;9.226;2023-05-13T19:29:42;1.65;;;1.10;;
62153;SDS011;48140;45.486;9.226;2023-05-13T19:32:07;1.70;;;1.02;;
62153;SDS011;48140;45.486;9.226;2023-05-13T19:34:36;1.00;;;0.70;;
62153;SDS011;48140;45.486;9.226;2023-05-13T19:37:05;2.15;;;1.25;;
62153;SDS011;48140;45.486;9.226;2023-05-13T19:39:31;1.40;;;0.85;;
62153;SDS011;48140;45.486;9.226;2023-05-13T19:41:57;1.27;;;1.00;;
62153;SDS011;48140;45.486;9.226;2023-05-13T19:44:25;1.38;;;1.23;;
62153;SDS011;48140;45.486;9.226;2023-05-13T19:46:55;1.95;;;1.17;;
62153;SDS011;48140;45.486;9.226;2023-05-13T19:50:07;1.40;;;1.17;;
62153;SDS011;48140;45.486;9.226;2023-05-13T19:56:59;1.58;;;1.02;;
62153;SDS011;48140;45.486;9.226;2023-05-13T19:59:51;1.23;;;0.95;;
62153;SDS011;48140;45.486;9.226;2023-05-13T20:02:40;2.03;;;1.42;;
62153;SDS011;48140;45.486;9.226;2023-05-13T20:05:06;2.65;;;1.50;;
62153;SDS011;48140;45.486;9.226;2023-05-13T20:07:44;1.88;;;1.35;;
62153;SDS011;48140;45.486;9.226;2023-05-13T20:10:14;2.38;;;1.13;;
62153;SDS011;48140;45.486;9.226;2023-05-13T20:12:43;3.33;;;1.30;;
62153;SDS011;48140;45.486;9.226;2023-05-13T20:15:29;5.10;;;1.20;;
62153;SDS011;48140;45.486;9.226;2023-05-13T20:18:06;5.55;;;1.40;;
62153;SDS011;48140;45.486;9.226;2023-05-13T20:20:53;4.47;;;1.63;;
62153;SDS011;48140;45.486;9.226;2023-05-13T20:23:21;2.95;;;1.50;;
62153;SDS011;48140;45.486;9.226;2023-05-13T20:25:50;3.60;;;1.33;;